Raiatea — V7VA3 — position and weather

sailwx.info

Track history (hours):
 
Tides and Currents Weather Stations Pressure Air Temp Water Temp Dewpoint Dewpoint Depression Visibility Wind Speed Wind Dir Waves Ship Positions

Raiatea

Last reported at 2017-Jul-27 13:52 UTC. Time now 2017-Jul-28 02:51 UTC.
Position N 30°46' E 124°38'.

Length 292 m; draft 18.1 m.

Type: Cargo ship. MMSI: 538004070.

Date/timePositionNaut miles runAvg speedWind from/ knotsBaromVisibWave heightAir tempDewpointWater temp
2017-Jul-27 13:52N 30°46' E 124°38'  
2017-Jul-20 16:55N 01°15' E 104°08'511.8
2017-Jul-20 16:30N 01°15' E 104°03'4 7.9
2017-Jul-20 16:00N 01°16' E 103°59'0 0.8
2017-Jul-20 15:23N 01°17' E 103°59'0 0.2
2017-Jul-20 14:53N 01°17' E 103°59'0 0.2
2017-Jul-20 12:53N 01°17' E 103°59'0 0.1
2017-Jul-20 11:50N 01°17' E 103°59'0 0.2
2017-Jul-20 11:26N 01°17' E 103°59'0 0.0
2017-Jul-20 10:59N 01°17' E 103°59'0 0.0
2017-Jul-20 09:44N 01°17' E 103°59'0 0.0
2017-Jul-20 08:20N 01°17' E 103°59'0 0.1
2017-Jul-20 05:56N 01°17' E 103°59'0 0.2
2017-Jul-20 05:11N 01°17' E 103°59'0 0.0
2017-Jul-20 03:26N 01°17' E 103°59'0 0.1
2017-Jul-20 01:05N 01°17' E 103°59'0 0.1
2017-Jul-20 00:42N 01°17' E 103°59'1 3.1
2017-Jul-20 00:22N 01°17' E 103°58'2 5.7
2017-Jul-20 00:00N 01°17' E 103°56'1 2.6
2017-Jul-19 23:30N 01°15' E 103°57'2 4.6
2017-Jul-19 23:00N 01°14' E 103°56'5 9.6
2017-Jul-19 22:30N 01°11' E 103°51'4 8.3
2017-Jul-19 22:00N 01°10' E 103°48'4 8.7
2017-Jul-19 21:30N 01°07' E 103°44'5 9.0
2017-Jul-19 21:00N 01°04' E 103°41'510.0
2017-Jul-19 20:30N 01°05' E 103°36'611.2
2017-Jul-19 20:00N 01°07' E 103°31'611.3
2017-Jul-19 19:29N 01°10' E 103°26'510.6
2017-Jul-19 19:00N 01°13' E 103°22'4 6.9
2017-Jul-19 18:30N 01°16' E 103°19'19 8.2
2017-Jul-19 16:10N 01°28' E 103°04'  
Track history (hours):
 
Tides and Currents Weather Stations Pressure Air Temp Water Temp Dewpoint Dewpoint Depression Visibility Wind Speed Wind Dir Waves Ship Positions

Raiatea

Last reported at 2017-Jul-27 13:52 UTC. Time now 2017-Jul-28 02:51 UTC.
Position N 30°46' E 124°38'.

Length 292 m; draft 18.1 m.

Type: Cargo ship. MMSI: 538004070.

Date/timePositionNaut miles runAvg speedWind from/ knotsBaromVisibWave heightAir tempDewpointWater temp
2017-Jul-27 13:52N 30°46' E 124°38'  
2017-Jul-20 16:55N 01°15' E 104°08'511.8
2017-Jul-20 16:30N 01°15' E 104°03'4 7.9
2017-Jul-20 16:00N 01°16' E 103°59'0 0.8
2017-Jul-20 15:23N 01°17' E 103°59'0 0.2
2017-Jul-20 14:53N 01°17' E 103°59'0 0.2
2017-Jul-20 12:53N 01°17' E 103°59'0 0.1
2017-Jul-20 11:50N 01°17' E 103°59'0 0.2
2017-Jul-20 11:26N 01°17' E 103°59'0 0.0
2017-Jul-20 10:59N 01°17' E 103°59'0 0.0
2017-Jul-20 09:44N 01°17' E 103°59'0 0.0
2017-Jul-20 08:20N 01°17' E 103°59'0 0.1
2017-Jul-20 05:56N 01°17' E 103°59'0 0.2
2017-Jul-20 05:11N 01°17' E 103°59'0 0.0
2017-Jul-20 03:26N 01°17' E 103°59'0 0.1
2017-Jul-20 01:05N 01°17' E 103°59'0 0.1
2017-Jul-20 00:42N 01°17' E 103°59'1 3.1
2017-Jul-20 00:22N 01°17' E 103°58'2 5.7
2017-Jul-20 00:00N 01°17' E 103°56'1 2.6
2017-Jul-19 23:30N 01°15' E 103°57'2 4.6
2017-Jul-19 23:00N 01°14' E 103°56'5 9.6
2017-Jul-19 22:30N 01°11' E 103°51'4 8.3
2017-Jul-19 22:00N 01°10' E 103°48'4 8.7
2017-Jul-19 21:30N 01°07' E 103°44'5 9.0
2017-Jul-19 21:00N 01°04' E 103°41'510.0
2017-Jul-19 20:30N 01°05' E 103°36'611.2
2017-Jul-19 20:00N 01°07' E 103°31'611.3
2017-Jul-19 19:29N 01°10' E 103°26'510.6
2017-Jul-19 19:00N 01°13' E 103°22'4 6.9
2017-Jul-19 18:30N 01°16' E 103°19'19 8.2
2017-Jul-19 16:10N 01°28' E 103°04'  

Dump ship's entire track history